sensor_id;sensor_type;location;lat;lon;timestamp;temperature;humidity
16315;DHT22;8266;52.150;4.768;2024-02-15T00:01:15;15.00;99.90
16315;DHT22;8266;52.150;4.768;2024-02-15T00:03:42;15.00;99.90
16315;DHT22;8266;52.150;4.768;2024-02-15T00:06:10;15.00;99.90
16315;DHT22;8266;52.150;4.768;2024-02-15T00:08:37;15.00;99.90
16315;DHT22;8266;52.150;4.768;2024-02-15T00:11:06;15.10;99.90
16315;DHT22;8266;52.150;4.768;2024-02-15T00:13:36;15.00;99.90
16315;DHT22;8266;52.150;4.768;2024-02-15T00:16:04;15.10;99.90
16315;DHT22;8266;52.150;4.768;2024-02-15T00:18:31;15.10;99.90
16315;DHT22;8266;52.150;4.768;2024-02-15T00:20:59;15.10;99.90
16315;DHT22;8266;52.150;4.768;2024-02-15T00:23:26;15.10;99.90
16315;DHT22;8266;52.150;4.768;2024-02-15T00:25:54;15.10;99.90
16315;DHT22;8266;52.150;4.768;2024-02-15T00:28:22;15.10;99.90
16315;DHT22;8266;52.150;4.768;2024-02-15T00:30:50;15.10;99.90
16315;DHT22;8266;52.150;4.768;2024-02-15T00:33:17;15.10;99.90
16315;DHT22;8266;52.150;4.768;2024-02-15T00:35:44;15.10;99.90
16315;DHT22;8266;52.150;4.768;2024-02-15T00:38:11;15.10;99.90
16315;DHT22;8266;52.150;4.768;2024-02-15T00:40:39;15.10;99.90
16315;DHT22;8266;52.150;4.768;2024-02-15T00:43:06;15.10;99.90
16315;DHT22;8266;52.150;4.768;2024-02-15T00:45:35;15.10;99.90
16315;DHT22;8266;52.150;4.768;2024-02-15T00:48:03;15.10;99.90
16315;DHT22;8266;52.150;4.768;2024-02-15T00:50:38;15.10;99.90
16315;DHT22;8266;52.150;4.768;2024-02-15T00:53:05;15.10;99.90
16315;DHT22;8266;52.150;4.768;2024-02-15T00:55:32;15.10;99.90
16315;DHT22;8266;52.150;4.768;2024-02-15T00:57:59;15.10;99.90
16315;DHT22;8266;52.150;4.768;2024-02-15T01:00:26;15.10;99.90
16315;DHT22;8266;52.150;4.768;2024-02-15T01:02:55;15.10;99.90
16315;DHT22;8266;52.150;4.768;2024-02-15T01:05:22;15.10;99.90
16315;DHT22;8266;52.150;4.768;2024-02-15T01:07:49;15.10;99.90
16315;DHT22;8266;52.150;4.768;2024-02-15T01:10:17;15.20;99.90
16315;DHT22;8266;52.150;4.768;2024-02-15T01:12:45;15.10;99.90
16315;DHT22;8266;52.150;4.768;2024-02-15T01:15:12;15.20;99.90
16315;DHT22;8266;52.150;4.768;2024-02-15T01:17:40;15.20;99.90
16315;DHT22;8266;52.150;4.768;2024-02-15T01:20:09;15.20;99.90
16315;DHT22;8266;52.150;4.768;2024-02-15T01:22:37;15.20;99.90
16315;DHT22;8266;52.150;4.768;2024-02-15T01:25:04;15.20;99.90
16315;DHT22;8266;52.150;4.768;2024-02-15T01:27:32;15.20;99.90
16315;DHT22;8266;52.150;4.768;2024-02-15T01:29:59;15.20;99.90
16315;DHT22;8266;52.150;4.768;2024-02-15T01:32:26;15.20;99.90
16315;DHT22;8266;52.150;4.768;2024-02-15T01:34:53;15.20;99.90
16315;DHT22;8266;52.150;4.768;2024-02-15T01:37:22;15.20;99.90
16315;DHT22;8266;52.150;4.768;2024-02-15T01:39:50;15.20;99.90
16315;DHT22;8266;52.150;4.768;2024-02-15T01:42:18;15.20;99.90
16315;DHT22;8266;52.150;4.768;2024-02-15T01:44:45;15.20;99.90
16315;DHT22;8266;52.150;4.768;2024-02-15T01:47:15;15.20;99.90
16315;DHT22;8266;52.150;4.768;2024-02-15T01:49:43;15.20;99.90
16315;DHT22;8266;52.150;4.768;2024-02-15T01:52:11;15.20;99.90
16315;DHT22;8266;52.150;4.768;2024-02-15T01:54:41;15.20;99.90
16315;DHT22;8266;52.150;4.768;2024-02-15T01:57:08;15.10;99.90
16315;DHT22;8266;52.150;4.768;2024-02-15T01:59:36;15.10;99.90
16315;DHT22;8266;52.150;4.768;2024-02-15T02:02:04;15.10;99.90
16315;DHT22;8266;52.150;4.768;2024-02-15T02:04:35;15.10;99.90
16315;DHT22;8266;52.150;4.768;2024-02-15T02:07:02;15.10;99.90
16315;DHT22;8266;52.150;4.768;2024-02-15T02:09:29;15.10;99.90
16315;DHT22;8266;52.150;4.768;2024-02-15T02:11:57;15.10;99.90
16315;DHT22;8266;52.150;4.768;2024-02-15T02:14:25;15.10;99.90
16315;DHT22;8266;52.150;4.768;2024-02-15T02:16:52;15.10;99.90
16315;DHT22;8266;52.150;4.768;2024-02-15T02:19:21;15.10;99.90
16315;DHT22;8266;52.150;4.768;2024-02-15T02:21:48;15.10;99.90
16315;DHT22;8266;52.150;4.768;2024-02-15T02:24:22;15.10;99.90
16315;DHT22;8266;52.150;4.768;2024-02-15T02:26:52;15.10;99.90
16315;DHT22;8266;52.150;4.768;2024-02-15T02:29:20;15.10;99.90
16315;DHT22;8266;52.150;4.768;2024-02-15T02:31:47;15.10;99.90
16315;DHT22;8266;52.150;4.768;2024-02-15T02:34:14;15.10;99.90
16315;DHT22;8266;52.150;4.768;2024-02-15T02:36:43;15.10;99.90
16315;DHT22;8266;52.150;4.768;2024-02-15T02:39:11;15.10;99.90
16315;DHT22;8266;52.150;4.768;2024-02-15T02:41:38;15.10;99.90
16315;DHT22;8266;52.150;4.768;2024-02-15T02:44:06;15.10;99.90
16315;DHT22;8266;52.150;4.768;2024-02-15T02:46:33;15.10;99.90
16315;DHT22;8266;52.150;4.768;2024-02-15T02:49:01;15.10;99.90
16315;DHT22;8266;52.150;4.768;2024-02-15T02:51:28;15.10;99.90
16315;DHT22;8266;52.150;4.768;2024-02-15T02:53:55;15.10;99.90
16315;DHT22;8266;52.150;4.768;2024-02-15T02:56:22;15.10;99.90
16315;DHT22;8266;52.150;4.768;2024-02-15T02:58:49;15.10;99.90
16315;DHT22;8266;52.150;4.768;2024-02-15T03:01:21;15.10;99.90
16315;DHT22;8266;52.150;4.768;2024-02-15T03:03:52;15.10;99.90
16315;DHT22;8266;52.150;4.768;2024-02-15T03:06:21;15.10;99.90
16315;DHT22;8266;52.150;4.768;2024-02-15T03:08:50;15.10;99.90
16315;DHT22;8266;52.150;4.768;2024-02-15T03:11:19;15.10;99.90
16315;DHT22;8266;52.150;4.768;2024-02-15T03:13:47;15.10;99.90
16315;DHT22;8266;52.150;4.768;2024-02-15T03:16:15;15.00;99.90
16315;DHT22;8266;52.150;4.768;2024-02-15T03:18:44;15.10;99.90
16315;DHT22;8266;52.150;4.768;2024-02-15T03:21:11;15.00;99.90
16315;DHT22;8266;52.150;4.768;2024-02-15T03:23:38;15.10;99.90
16315;DHT22;8266;52.150;4.768;2024-02-15T03:26:08;15.10;99.90
16315;DHT22;8266;52.150;4.768;2024-02-15T03:28:35;15.10;99.90
16315;DHT22;8266;52.150;4.768;2024-02-15T03:31:03;15.10;99.90
16315;DHT22;8266;52.150;4.768;2024-02-15T03:33:30;15.10;99.90
16315;DHT22;8266;52.150;4.768;2024-02-15T03:36:01;15.10;99.90
16315;DHT22;8266;52.150;4.768;2024-02-15T03:38:28;15.10;99.90
16315;DHT22;8266;52.150;4.768;2024-02-15T03:40:57;15.10;99.90
16315;DHT22;8266;52.150;4.768;2024-02-15T03:43:24;15.10;99.90
16315;DHT22;8266;52.150;4.768;2024-02-15T03:45:51;15.10;99.90
16315;DHT22;8266;52.150;4.768;2024-02-15T03:48:18;15.10;99.90
16315;DHT22;8266;52.150;4.768;2024-02-15T03:50:45;15.10;99.90
16315;DHT22;8266;52.150;4.768;2024-02-15T03:53:15;15.10;99.90
16315;DHT22;8266;52.150;4.768;2024-02-15T03:55:42;15.10;99.90
16315;DHT22;8266;52.150;4.768;2024-02-15T03:58:09;15.10;99.90
16315;DHT22;8266;52.150;4.768;2024-02-15T04:00:37;15.10;99.90
16315;DHT22;8266;52.150;4.768;2024-02-15T04:03:06;15.10;99.90
16315;DHT22;8266;52.150;4.768;2024-02-15T04:05:33;15.10;99.90
16315;DHT22;8266;52.150;4.768;2024-02-15T04:08:00;15.10;99.90
16315;DHT22;8266;52.150;4.768;2024-02-15T04:10:29;15.10;99.90
16315;DHT22;8266;52.150;4.768;2024-02-15T04:12:57;15.10;99.90
16315;DHT22;8266;52.150;4.768;2024-02-15T04:15:24;15.10;99.90
16315;DHT22;8266;52.150;4.768;2024-02-15T04:17:51;15.10;99.90
16315;DHT22;8266;52.150;4.768;2024-02-15T04:20:23;15.10;99.90
16315;DHT22;8266;52.150;4.768;2024-02-15T04:22:51;15.10;99.90
16315;DHT22;8266;52.150;4.768;2024-02-15T04:25:18;15.10;99.90
16315;DHT22;8266;52.150;4.768;2024-02-15T04:27:52;15.10;99.90
16315;DHT22;8266;52.150;4.768;2024-02-15T04:30:20;15.10;99.90
16315;DHT22;8266;52.150;4.768;2024-02-15T04:32:49;15.10;99.90
16315;DHT22;8266;52.150;4.768;2024-02-15T04:35:17;15.10;99.90
16315;DHT22;8266;52.150;4.768;2024-02-15T04:37:44;15.10;99.90
16315;DHT22;8266;52.150;4.768;2024-02-15T04:40:12;15.10;99.90
16315;DHT22;8266;52.150;4.768;2024-02-15T04:42:39;15.10;99.90
16315;DHT22;8266;52.150;4.768;2024-02-15T04:45:10;15.10;99.90
16315;DHT22;8266;52.150;4.768;2024-02-15T04:47:39;15.10;99.90
16315;DHT22;8266;52.150;4.768;2024-02-15T04:50:07;15.10;99.90
16315;DHT22;8266;52.150;4.768;2024-02-15T04:52:34;15.10;99.90
16315;DHT22;8266;52.150;4.768;2024-02-15T04:55:02;15.10;99.90
16315;DHT22;8266;52.150;4.768;2024-02-15T04:57:31;15.10;99.90
16315;DHT22;8266;52.150;4.768;2024-02-15T05:00:00;15.10;99.90
16315;DHT22;8266;52.150;4.768;2024-02-15T05:02:28;15.10;99.90
16315;DHT22;8266;52.150;4.768;2024-02-15T05:04:55;15.10;99.90
16315;DHT22;8266;52.150;4.768;2024-02-15T05:07:23;15.10;99.90
16315;DHT22;8266;52.150;4.768;2024-02-15T05:09:53;15.00;99.90
16315;DHT22;8266;52.150;4.768;2024-02-15T05:12:23;15.00;99.90
16315;DHT22;8266;52.150;4.768;2024-02-15T05:14:51;15.00;99.90
16315;DHT22;8266;52.150;4.768;2024-02-15T05:17:18;15.00;99.90
16315;DHT22;8266;52.150;4.768;2024-02-15T05:19:49;15.00;99.90
16315;DHT22;8266;52.150;4.768;2024-02-15T05:22:16;15.00;99.90
16315;DHT22;8266;52.150;4.768;2024-02-15T05:24:44;15.00;99.90
16315;DHT22;8266;52.150;4.768;2024-02-15T05:27:11;15.00;99.90
16315;DHT22;8266;52.150;4.768;2024-02-15T05:29:38;15.00;99.90
16315;DHT22;8266;52.150;4.768;2024-02-15T05:32:07;15.00;99.90
16315;DHT22;8266;52.150;4.768;2024-02-15T05:34:34;15.00;99.90
16315;DHT22;8266;52.150;4.768;2024-02-15T05:37:06;14.90;99.90
16315;DHT22;8266;52.150;4.768;2024-02-15T05:39:33;15.00;99.90
16315;DHT22;8266;52.150;4.768;2024-02-15T05:42:00;15.00;99.90
16315;DHT22;8266;52.150;4.768;2024-02-15T05:44:28;15.00;99.90
16315;DHT22;8266;52.150;4.768;2024-02-15T05:46:55;15.00;99.90
16315;DHT22;8266;52.150;4.768;2024-02-15T05:49:23;15.00;99.90
16315;DHT22;8266;52.150;4.768;2024-02-15T05:51:52;15.00;99.90
16315;DHT22;8266;52.150;4.768;2024-02-15T05:54:21;15.00;99.90
16315;DHT22;8266;52.150;4.768;2024-02-15T05:56:49;15.00;99.90
16315;DHT22;8266;52.150;4.768;2024-02-15T05:59:19;15.00;99.90
16315;DHT22;8266;52.150;4.768;2024-02-15T06:01:47;15.00;99.90
16315;DHT22;8266;52.150;4.768;2024-02-15T06:04:15;15.00;99.90
16315;DHT22;8266;52.150;4.768;2024-02-15T06:06:42;15.00;99.90
16315;DHT22;8266;52.150;4.768;2024-02-15T06:09:15;14.90;99.90
16315;DHT22;8266;52.150;4.768;2024-02-15T06:11:46;15.00;99.90
16315;DHT22;8266;52.150;4.768;2024-02-15T06:14:16;15.00;99.90
16315;DHT22;8266;52.150;4.768;2024-02-15T06:16:43;15.00;99.90
16315;DHT22;8266;52.150;4.768;2024-02-15T06:19:11;15.00;99.90
16315;DHT22;8266;52.150;4.768;2024-02-15T06:21:38;15.00;99.90
16315;DHT22;8266;52.150;4.768;2024-02-15T06:24:05;15.00;99.90
16315;DHT22;8266;52.150;4.768;2024-02-15T06:26:32;15.00;99.90
16315;DHT22;8266;52.150;4.768;2024-02-15T06:29:01;15.00;99.90
16315;DHT22;8266;52.150;4.768;2024-02-15T06:31:45;15.00;99.90
16315;DHT22;8266;52.150;4.768;2024-02-15T06:34:30;15.00;99.90
16315;DHT22;8266;52.150;4.768;2024-02-15T06:37:35;15.00;99.90
16315;DHT22;8266;52.150;4.768;2024-02-15T06:40:20;15.00;99.90
16315;DHT22;8266;52.150;4.768;2024-02-15T06:42:48;15.00;99.90
16315;DHT22;8266;52.150;4.768;2024-02-15T06:45:16;15.00;99.90
16315;DHT22;8266;52.150;4.768;2024-02-15T06:47:43;15.00;99.90
16315;DHT22;8266;52.150;4.768;2024-02-15T06:50:11;15.00;99.90
16315;DHT22;8266;52.150;4.768;2024-02-15T06:52:39;15.00;99.90
16315;DHT22;8266;52.150;4.768;2024-02-15T06:55:07;15.00;99.90
16315;DHT22;8266;52.150;4.768;2024-02-15T06:57:38;15.00;99.90
16315;DHT22;8266;52.150;4.768;2024-02-15T07:00:07;15.00;99.90
16315;DHT22;8266;52.150;4.768;2024-02-15T07:02:36;15.00;99.90
16315;DHT22;8266;52.150;4.768;2024-02-15T07:05:04;14.90;99.90
16315;DHT22;8266;52.150;4.768;2024-02-15T07:07:32;14.90;99.90
16315;DHT22;8266;52.150;4.768;2024-02-15T07:10:00;14.90;99.90
16315;DHT22;8266;52.150;4.768;2024-02-15T07:12:28;14.90;99.90
16315;DHT22;8266;52.150;4.768;2024-02-15T07:14:57;14.90;99.90
16315;DHT22;8266;52.150;4.768;2024-02-15T07:17:27;14.90;99.90
16315;DHT22;8266;52.150;4.768;2024-02-15T07:19:55;14.90;99.90
16315;DHT22;8266;52.150;4.768;2024-02-15T07:22:25;14.90;99.90
16315;DHT22;8266;52.150;4.768;2024-02-15T07:24:52;14.90;99.90
16315;DHT22;8266;52.150;4.768;2024-02-15T07:27:19;14.90;99.90
16315;DHT22;8266;52.150;4.768;2024-02-15T07:29:49;14.90;99.90
16315;DHT22;8266;52.150;4.768;2024-02-15T07:32:17;14.90;99.90
16315;DHT22;8266;52.150;4.768;2024-02-15T07:34:45;14.80;99.90
16315;DHT22;8266;52.150;4.768;2024-02-15T07:37:15;14.90;99.90
16315;DHT22;8266;52.150;4.768;2024-02-15T07:39:42;14.90;99.90
16315;DHT22;8266;52.150;4.768;2024-02-15T07:42:10;14.90;99.90
16315;DHT22;8266;52.150;4.768;2024-02-15T07:44:38;14.90;99.90
16315;DHT22;8266;52.150;4.768;2024-02-15T07:47:05;14.90;99.90
16315;DHT22;8266;52.150;4.768;2024-02-15T07:49:32;14.90;99.90
16315;DHT22;8266;52.150;4.768;2024-02-15T07:52:00;14.90;99.90
16315;DHT22;8266;52.150;4.768;2024-02-15T07:54:31;14.90;99.90
16315;DHT22;8266;52.150;4.768;2024-02-15T07:56:59;14.90;99.90
16315;DHT22;8266;52.150;4.768;2024-02-15T07:59:26;14.90;99.90
16315;DHT22;8266;52.150;4.768;2024-02-15T08:01:54;14.90;99.90
16315;DHT22;8266;52.150;4.768;2024-02-15T08:04:21;14.90;99.90
16315;DHT22;8266;52.150;4.768;2024-02-15T08:06:50;14.90;99.90
16315;DHT22;8266;52.150;4.768;2024-02-15T08:09:19;14.80;99.90
16315;DHT22;8266;52.150;4.768;2024-02-15T08:11:51;14.90;99.90
16315;DHT22;8266;52.150;4.768;2024-02-15T08:14:18;14.90;99.90
16315;DHT22;8266;52.150;4.768;2024-02-15T08:16:46;14.90;99.90
16315;DHT22;8266;52.150;4.768;2024-02-15T08:19:14;14.90;99.90
16315;DHT22;8266;52.150;4.768;2024-02-15T08:21:41;14.90;99.90
16315;DHT22;8266;52.150;4.768;2024-02-15T08:24:12;14.90;99.90
16315;DHT22;8266;52.150;4.768;2024-02-15T08:26:40;15.00;99.90
16315;DHT22;8266;52.150;4.768;2024-02-15T08:29:09;14.90;99.90
16315;DHT22;8266;52.150;4.768;2024-02-15T08:31:37;15.00;99.90
16315;DHT22;8266;52.150;4.768;2024-02-15T08:34:04;15.00;99.90
16315;DHT22;8266;52.150;4.768;2024-02-15T08:36:35;15.00;99.90
16315;DHT22;8266;52.150;4.768;2024-02-15T08:39:02;15.00;99.90
16315;DHT22;8266;52.150;4.768;2024-02-15T08:41:30;15.00;99.90
16315;DHT22;8266;52.150;4.768;2024-02-15T08:43:57;15.00;99.90
16315;DHT22;8266;52.150;4.768;2024-02-15T08:46:28;15.10;99.90
16315;DHT22;8266;52.150;4.768;2024-02-15T08:48:56;15.10;99.90
16315;DHT22;8266;52.150;4.768;2024-02-15T08:51:23;15.10;99.90
16315;DHT22;8266;52.150;4.768;2024-02-15T08:53:51;15.10;99.90
16315;DHT22;8266;52.150;4.768;2024-02-15T08:56:18;15.10;99.90
16315;DHT22;8266;52.150;4.768;2024-02-15T08:58:47;15.10;99.90
16315;DHT22;8266;52.150;4.768;2024-02-15T09:01:14;15.10;99.90
16315;DHT22;8266;52.150;4.768;2024-02-15T09:03:44;15.10;99.90
16315;DHT22;8266;52.150;4.768;2024-02-15T09:06:11;15.10;99.90
16315;DHT22;8266;52.150;4.768;2024-02-15T09:08:39;15.10;99.90
16315;DHT22;8266;52.150;4.768;2024-02-15T09:11:06;15.10;99.90
16315;DHT22;8266;52.150;4.768;2024-02-15T09:13:37;15.10;99.90
16315;DHT22;8266;52.150;4.768;2024-02-15T09:16:05;15.20;99.90
16315;DHT22;8266;52.150;4.768;2024-02-15T09:18:32;15.20;99.90
16315;DHT22;8266;52.150;4.768;2024-02-15T09:21:01;15.20;99.90
16315;DHT22;8266;52.150;4.768;2024-02-15T09:23:30;15.20;99.90
16315;DHT22;8266;52.150;4.768;2024-02-15T09:25:57;15.20;99.90
16315;DHT22;8266;52.150;4.768;2024-02-15T09:28:24;15.30;99.90
16315;DHT22;8266;52.150;4.768;2024-02-15T09:30:51;15.30;99.90
16315;DHT22;8266;52.150;4.768;2024-02-15T09:33:19;15.30;99.90
16315;DHT22;8266;52.150;4.768;2024-02-15T09:35:48;15.30;99.90
16315;DHT22;8266;52.150;4.768;2024-02-15T09:38:16;15.30;99.90
16315;DHT22;8266;52.150;4.768;2024-02-15T09:40:48;15.40;99.90
16315;DHT22;8266;52.150;4.768;2024-02-15T09:43:18;15.40;99.90
16315;DHT22;8266;52.150;4.768;2024-02-15T09:45:47;15.40;99.90
16315;DHT22;8266;52.150;4.768;2024-02-15T09:48:15;15.50;99.90
16315;DHT22;8266;52.150;4.768;2024-02-15T09:50:45;15.50;99.90
16315;DHT22;8266;52.150;4.768;2024-02-15T09:53:12;15.50;99.90
16315;DHT22;8266;52.150;4.768;2024-02-15T09:55:42;15.50;99.90
16315;DHT22;8266;52.150;4.768;2024-02-15T09:58:10;15.60;99.90
16315;DHT22;8266;52.150;4.768;2024-02-15T10:00:38;15.50;99.90
16315;DHT22;8266;52.150;4.768;2024-02-15T10:03:06;15.60;99.90
16315;DHT22;8266;52.150;4.768;2024-02-15T10:05:33;15.60;99.90
16315;DHT22;8266;52.150;4.768;2024-02-15T10:08:01;15.60;99.90
16315;DHT22;8266;52.150;4.768;2024-02-15T10:10:29;15.60;99.90
16315;DHT22;8266;52.150;4.768;2024-02-15T10:12:57;15.70;99.90
16315;DHT22;8266;52.150;4.768;2024-02-15T10:15:30;15.70;99.90
16315;DHT22;8266;52.150;4.768;2024-02-15T10:17:58;15.80;99.90
16315;DHT22;8266;52.150;4.768;2024-02-15T10:20:25;15.90;99.90
16315;DHT22;8266;52.150;4.768;2024-02-15T10:22:53;15.90;99.90
16315;DHT22;8266;52.150;4.768;2024-02-15T10:25:35;16.00;99.90
16315;DHT22;8266;52.150;4.768;2024-02-15T10:28:05;16.00;99.90
16315;DHT22;8266;52.150;4.768;2024-02-15T10:30:33;16.10;99.90
16315;DHT22;8266;52.150;4.768;2024-02-15T10:33:01;16.10;99.90
16315;DHT22;8266;52.150;4.768;2024-02-15T10:35:28;16.10;99.90
16315;DHT22;8266;52.150;4.768;2024-02-15T10:38:05;16.10;99.90
16315;DHT22;8266;52.150;4.768;2024-02-15T10:40:34;16.10;99.90
16315;DHT22;8266;52.150;4.768;2024-02-15T10:43:04;16.10;99.90
16315;DHT22;8266;52.150;4.768;2024-02-15T10:45:32;16.20;99.90
16315;DHT22;8266;52.150;4.768;2024-02-15T10:48:00;16.20;99.90
16315;DHT22;8266;52.150;4.768;2024-02-15T10:50:27;16.20;99.90
16315;DHT22;8266;52.150;4.768;2024-02-15T10:52:55;16.30;99.90
16315;DHT22;8266;52.150;4.768;2024-02-15T10:55:37;16.30;99.90
16315;DHT22;8266;52.150;4.768;2024-02-15T10:58:07;16.40;99.90
16315;DHT22;8266;52.150;4.768;2024-02-15T11:00:35;16.50;99.90
16315;DHT22;8266;52.150;4.768;2024-02-15T11:03:04;16.50;99.90
16315;DHT22;8266;52.150;4.768;2024-02-15T11:05:33;16.60;99.90
16315;DHT22;8266;52.150;4.768;2024-02-15T11:08:02;16.60;99.90
16315;DHT22;8266;52.150;4.768;2024-02-15T11:10:30;16.60;99.90
16315;DHT22;8266;52.150;4.768;2024-02-15T11:12:59;16.70;99.90
16315;DHT22;8266;52.150;4.768;2024-02-15T11:15:44;16.70;99.90
16315;DHT22;8266;52.150;4.768;2024-02-15T11:18:43;16.70;99.90
16315;DHT22;8266;52.150;4.768;2024-02-15T11:21:17;16.80;99.90
16315;DHT22;8266;52.150;4.768;2024-02-15T11:23:44;16.80;99.90
16315;DHT22;8266;52.150;4.768;2024-02-15T11:26:45;16.90;99.90
16315;DHT22;8266;52.150;4.768;2024-02-15T11:29:49;16.90;99.90
16315;DHT22;8266;52.150;4.768;2024-02-15T11:32:37;17.00;99.90
16315;DHT22;8266;52.150;4.768;2024-02-15T11:35:06;17.10;99.90
16315;DHT22;8266;52.150;4.768;2024-02-15T11:38:01;17.10;99.90
16315;DHT22;8266;52.150;4.768;2024-02-15T11:41:01;17.10;99.90
16315;DHT22;8266;52.150;4.768;2024-02-15T11:43:48;17.20;99.90
16315;DHT22;8266;52.150;4.768;2024-02-15T11:46:21;17.20;99.90
16315;DHT22;8266;52.150;4.768;2024-02-15T11:48:52;17.30;99.90
16315;DHT22;8266;52.150;4.768;2024-02-15T11:51:27;17.30;99.90
16315;DHT22;8266;52.150;4.768;2024-02-15T11:54:02;17.30;99.90
16315;DHT22;8266;52.150;4.768;2024-02-15T11:56:32;17.40;99.90
16315;DHT22;8266;52.150;4.768;2024-02-15T11:59:03;17.40;99.90
16315;DHT22;8266;52.150;4.768;2024-02-15T12:01:32;17.50;99.90
16315;DHT22;8266;52.150;4.768;2024-02-15T12:04:18;17.50;99.90
16315;DHT22;8266;52.150;4.768;2024-02-15T12:07:03;17.60;99.90
16315;DHT22;8266;52.150;4.768;2024-02-15T12:09:48;17.70;99.90
16315;DHT22;8266;52.150;4.768;2024-02-15T12:12:32;17.70;99.90
16315;DHT22;8266;52.150;4.768;2024-02-15T12:15:16;17.80;99.90
16315;DHT22;8266;52.150;4.768;2024-02-15T12:18:13;17.80;99.90
16315;DHT22;8266;52.150;4.768;2024-02-15T12:21:00;17.90;99.90
16315;DHT22;8266;52.150;4.768;2024-02-15T12:23:28;17.90;99.90
16315;DHT22;8266;52.150;4.768;2024-02-15T12:25:56;18.00;99.90
16315;DHT22;8266;52.150;4.768;2024-02-15T12:28:24;18.10;99.90
16315;DHT22;8266;52.150;4.768;2024-02-15T12:30:55;18.10;99.90
16315;DHT22;8266;52.150;4.768;2024-02-15T12:33:22;18.10;99.90
16315;DHT22;8266;52.150;4.768;2024-02-15T12:35:50;18.20;99.90
16315;DHT22;8266;52.150;4.768;2024-02-15T12:38:19;18.20;99.90
16315;DHT22;8266;52.150;4.768;2024-02-15T12:40:47;18.30;99.90
16315;DHT22;8266;52.150;4.768;2024-02-15T12:43:15;18.30;99.90
16315;DHT22;8266;52.150;4.768;2024-02-15T12:45:42;18.40;99.90
16315;DHT22;8266;52.150;4.768;2024-02-15T12:48:10;18.50;99.90
16315;DHT22;8266;52.150;4.768;2024-02-15T12:50:37;18.60;99.90
16315;DHT22;8266;52.150;4.768;2024-02-15T12:53:04;18.60;99.90
16315;DHT22;8266;52.150;4.768;2024-02-15T12:55:34;18.70;99.90
16315;DHT22;8266;52.150;4.768;2024-02-15T12:58:02;18.80;99.90
16315;DHT22;8266;52.150;4.768;2024-02-15T13:00:34;18.80;99.90
16315;DHT22;8266;52.150;4.768;2024-02-15T13:03:05;18.90;99.90
16315;DHT22;8266;52.150;4.768;2024-02-15T13:05:35;19.00;99.90
16315;DHT22;8266;52.150;4.768;2024-02-15T13:08:03;19.00;99.90
16315;DHT22;8266;52.150;4.768;2024-02-15T13:10:33;19.00;99.90
16315;DHT22;8266;52.150;4.768;2024-02-15T13:13:01;19.10;99.90
16315;DHT22;8266;52.150;4.768;2024-02-15T13:15:28;19.10;99.90
16315;DHT22;8266;52.150;4.768;2024-02-15T13:17:59;19.20;99.90
16315;DHT22;8266;52.150;4.768;2024-02-15T13:20:26;19.20;99.90
16315;DHT22;8266;52.150;4.768;2024-02-15T13:22:58;19.20;99.90
16315;DHT22;8266;52.150;4.768;2024-02-15T13:25:28;19.20;99.90
16315;DHT22;8266;52.150;4.768;2024-02-15T13:27:56;19.30;99.90
16315;DHT22;8266;52.150;4.768;2024-02-15T13:30:24;19.30;99.90
16315;DHT22;8266;52.150;4.768;2024-02-15T13:32:53;19.30;99.90
16315;DHT22;8266;52.150;4.768;2024-02-15T13:35:21;19.30;99.90
16315;DHT22;8266;52.150;4.768;2024-02-15T13:37:49;19.30;99.90
16315;DHT22;8266;52.150;4.768;2024-02-15T13:40:19;19.30;99.90
16315;DHT22;8266;52.150;4.768;2024-02-15T13:42:50;19.30;99.90
16315;DHT22;8266;52.150;4.768;2024-02-15T13:45:21;19.30;99.90
16315;DHT22;8266;52.150;4.768;2024-02-15T13:47:49;19.30;99.90
16315;DHT22;8266;52.150;4.768;2024-02-15T13:50:17;19.30;99.90
16315;DHT22;8266;52.150;4.768;2024-02-15T13:52:45;19.30;99.90
16315;DHT22;8266;52.150;4.768;2024-02-15T13:55:13;19.30;99.90
16315;DHT22;8266;52.150;4.768;2024-02-15T13:57:43;19.30;99.90
16315;DHT22;8266;52.150;4.768;2024-02-15T14:00:13;19.30;99.90
16315;DHT22;8266;52.150;4.768;2024-02-15T14:02:49;19.30;99.90
16315;DHT22;8266;52.150;4.768;2024-02-15T14:05:16;19.30;99.90
16315;DHT22;8266;52.150;4.768;2024-02-15T14:07:47;19.30;99.90
16315;DHT22;8266;52.150;4.768;2024-02-15T14:10:15;19.30;99.90
16315;DHT22;8266;52.150;4.768;2024-02-15T14:12:44;19.30;99.90
16315;DHT22;8266;52.150;4.768;2024-02-15T14:15:11;19.20;99.90
16315;DHT22;8266;52.150;4.768;2024-02-15T14:17:38;19.20;99.90
16315;DHT22;8266;52.150;4.768;2024-02-15T14:20:08;19.20;99.90
16315;DHT22;8266;52.150;4.768;2024-02-15T14:22:39;19.20;99.90
16315;DHT22;8266;52.150;4.768;2024-02-15T14:25:07;19.20;99.90
16315;DHT22;8266;52.150;4.768;2024-02-15T14:27:35;19.20;99.90
16315;DHT22;8266;52.150;4.768;2024-02-15T14:30:03;19.20;99.90
16315;DHT22;8266;52.150;4.768;2024-02-15T14:32:48;19.20;99.90
16315;DHT22;8266;52.150;4.768;2024-02-15T14:35:31;19.20;99.90
16315;DHT22;8266;52.150;4.768;2024-02-15T14:38:00;19.20;99.90
16315;DHT22;8266;52.150;4.768;2024-02-15T14:40:31;19.20;99.90
16315;DHT22;8266;52.150;4.768;2024-02-15T14:42:58;19.20;99.90
16315;DHT22;8266;52.150;4.768;2024-02-15T14:45:26;19.20;99.90
16315;DHT22;8266;52.150;4.768;2024-02-15T14:47:53;19.20;99.90
16315;DHT22;8266;52.150;4.768;2024-02-15T14:50:20;19.10;99.90
16315;DHT22;8266;52.150;4.768;2024-02-15T14:52:51;19.10;99.90
16315;DHT22;8266;52.150;4.768;2024-02-15T14:55:19;19.00;99.90
16315;DHT22;8266;52.150;4.768;2024-02-15T14:57:46;19.00;99.90
16315;DHT22;8266;52.150;4.768;2024-02-15T15:00:14;19.00;99.90
16315;DHT22;8266;52.150;4.768;2024-02-15T15:02:43;18.90;99.90
16315;DHT22;8266;52.150;4.768;2024-02-15T15:05:12;18.90;99.90
16315;DHT22;8266;52.150;4.768;2024-02-15T15:07:58;18.90;99.90
16315;DHT22;8266;52.150;4.768;2024-02-15T15:10:45;18.80;99.90
16315;DHT22;8266;52.150;4.768;2024-02-15T15:13:30;18.80;99.90
16315;DHT22;8266;52.150;4.768;2024-02-15T15:15:58;18.80;99.90
16315;DHT22;8266;52.150;4.768;2024-02-15T15:18:26;18.70;99.90
16315;DHT22;8266;52.150;4.768;2024-02-15T15:20:53;18.70;99.90
16315;DHT22;8266;52.150;4.768;2024-02-15T15:23:22;18.60;99.90
16315;DHT22;8266;52.150;4.768;2024-02-15T15:25:49;18.60;99.90
16315;DHT22;8266;52.150;4.768;2024-02-15T15:28:16;18.50;99.90
16315;DHT22;8266;52.150;4.768;2024-02-15T15:30:44;18.50;99.90
16315;DHT22;8266;52.150;4.768;2024-02-15T15:33:14;18.50;99.90
16315;DHT22;8266;52.150;4.768;2024-02-15T15:35:42;18.40;99.90
16315;DHT22;8266;52.150;4.768;2024-02-15T15:38:09;18.40;99.90
16315;DHT22;8266;52.150;4.768;2024-02-15T15:40:37;18.30;99.90
16315;DHT22;8266;52.150;4.768;2024-02-15T15:43:05;18.30;99.90
16315;DHT22;8266;52.150;4.768;2024-02-15T15:45:33;18.30;99.90
16315;DHT22;8266;52.150;4.768;2024-02-15T15:48:01;18.20;99.90
16315;DHT22;8266;52.150;4.768;2024-02-15T15:50:29;18.20;99.90
16315;DHT22;8266;52.150;4.768;2024-02-15T15:53:01;18.20;99.90
16315;DHT22;8266;52.150;4.768;2024-02-15T15:55:28;18.10;99.90
16315;DHT22;8266;52.150;4.768;2024-02-15T15:57:57;18.10;99.90
16315;DHT22;8266;52.150;4.768;2024-02-15T16:00:24;18.10;99.90